createdAt,value
2024-01-28T00:01:52.204Z,2.90
2024-01-28T00:04:24.578Z,3.00
2024-01-28T00:06:57.381Z,2.80
2024-01-28T00:14:35.356Z,2.70
2024-01-28T00:17:11.074Z,2.90
2024-01-28T00:19:44.437Z,3.00
2024-01-28T00:22:17.455Z,3.00
2024-01-28T00:24:51.650Z,2.90
2024-01-28T00:27:24.649Z,2.90
2024-01-28T00:29:56.574Z,2.90
2024-01-28T00:32:29.272Z,2.90
2024-01-28T00:42:40.185Z,2.60
2024-01-28T00:45:12.124Z,2.50
2024-01-28T00:47:45.784Z,2.40
2024-01-28T00:50:18.129Z,2.30
2024-01-28T00:52:50.980Z,2.20
2024-01-28T00:55:23.031Z,2.10
2024-01-28T01:00:28.746Z,2.20
2024-01-28T01:05:35.337Z,2.40
2024-01-28T01:08:08.279Z,2.50
2024-01-28T01:13:14.336Z,2.60
2024-01-28T01:15:46.452Z,2.50
2024-01-28T01:18:19.189Z,2.50
2024-01-28T01:20:54.774Z,2.50
2024-01-28T01:23:27.509Z,2.50
2024-01-28T01:25:59.483Z,2.60
2024-01-28T01:28:35.278Z,2.50
2024-01-28T01:33:40.488Z,2.50
2024-01-28T01:38:46.579Z,2.50
2024-01-28T01:41:18.619Z,2.50
2024-01-28T01:43:51.238Z,2.50
2024-01-28T01:46:23.696Z,2.50
2024-01-28T01:48:58.056Z,2.40
2024-01-28T01:51:31.432Z,2.20
2024-01-28T01:54:04.536Z,2.10
2024-01-28T01:56:36.866Z,2.10
2024-01-28T01:59:09.436Z,2.20
2024-01-28T02:01:44.185Z,2.10
2024-01-28T02:04:17.200Z,2.20
2024-01-28T02:06:50.913Z,2.10
2024-01-28T02:09:23.758Z,2.00
2024-01-28T02:11:56.097Z,2.10
2024-01-28T02:17:02.678Z,2.10
2024-01-28T02:19:35.562Z,2.20
2024-01-28T02:22:07.543Z,2.30
2024-01-28T02:24:39.940Z,2.30
2024-01-28T02:27:12.049Z,2.40
2024-01-28T02:29:45.057Z,2.50
2024-01-28T02:32:19.064Z,2.60
2024-01-28T02:34:51.742Z,2.50
2024-01-28T02:37:23.750Z,2.50
2024-01-28T02:39:56.398Z,2.30
2024-01-28T02:50:07.341Z,1.90
2024-01-28T02:55:12.669Z,1.90
2024-01-28T02:57:44.649Z,1.90
2024-01-28T03:00:18.418Z,1.90
2024-01-28T03:02:50.338Z,1.90
2024-01-28T03:05:23.409Z,1.90
2024-01-28T03:07:55.733Z,1.90
2024-01-28T03:10:28.477Z,1.90
2024-01-28T03:13:00.430Z,2.00
2024-01-28T03:15:33.770Z,2.10
2024-01-28T03:18:07.122Z,2.10
2024-01-28T03:20:39.937Z,2.10
2024-01-28T03:23:12.355Z,2.00
2024-01-28T03:25:45.551Z,1.90
2024-01-28T03:28:19.004Z,1.90
2024-01-28T03:33:24.409Z,1.90
2024-01-28T03:38:29.682Z,2.00
2024-01-28T03:41:03.094Z,2.00
2024-01-28T03:43:35.145Z,2.00
2024-01-28T03:46:11.141Z,1.90
2024-01-28T03:48:43.227Z,1.90
2024-01-28T03:51:16.180Z,1.90
2024-01-28T03:53:48.824Z,2.00
2024-01-28T03:56:20.770Z,2.00
2024-01-28T03:58:56.405Z,2.00
2024-01-28T04:01:35.987Z,2.10
2024-01-28T04:04:08.898Z,2.10
2024-01-28T04:06:45.243Z,2.10
2024-01-28T04:09:18.337Z,2.00
2024-01-28T04:14:22.634Z,2.00
2024-01-28T04:16:55.420Z,2.00
2024-01-28T04:19:27.410Z,2.10
2024-01-28T04:22:00.332Z,2.20
2024-01-28T04:24:33.364Z,2.20
2024-01-28T04:27:06.289Z,2.20
2024-01-28T04:32:11.667Z,2.20
2024-01-28T04:34:43.705Z,2.20
2024-01-28T04:37:16.599Z,2.30
2024-01-28T04:44:57.993Z,2.50
2024-01-28T04:47:29.915Z,2.50
2024-01-28T04:50:02.847Z,2.60
2024-01-28T04:52:35.334Z,2.60
2024-01-28T04:55:08.196Z,2.60
2024-01-28T04:57:41.000Z,2.60
2024-01-28T05:00:15.752Z,2.60
2024-01-28T05:02:48.316Z,2.60
2024-01-28T05:05:21.176Z,2.60
2024-01-28T05:10:26.276Z,2.50
2024-01-28T05:12:58.671Z,2.60
2024-01-28T05:15:30.929Z,2.60
2024-01-28T05:18:03.844Z,2.70
2024-01-28T05:20:36.040Z,3.80
2024-01-28T05:23:08.817Z,3.10
2024-01-28T05:25:40.807Z,2.90
2024-01-28T05:28:13.675Z,2.70
2024-01-28T05:30:45.732Z,4.90
2024-01-28T05:33:18.797Z,2.60
2024-01-28T05:35:51.371Z,2.60
2024-01-28T05:40:56.514Z,2.60
2024-01-28T05:46:03.179Z,2.20
2024-01-28T05:51:08.968Z,1.90
2024-01-28T05:56:14.768Z,2.00
2024-01-28T05:58:46.745Z,2.00
2024-01-28T06:01:19.636Z,2.00
2024-01-28T06:03:51.786Z,1.90
2024-01-28T06:06:25.004Z,1.80
2024-01-28T06:08:57.710Z,1.70
2024-01-28T06:11:30.443Z,1.70
2024-01-28T06:14:03.664Z,1.80
2024-01-28T06:16:35.564Z,1.60
2024-01-28T06:19:08.408Z,1.80
2024-01-28T06:21:40.845Z,1.70
2024-01-28T06:29:20.112Z,1.50
2024-01-28T06:31:52.558Z,1.40
2024-01-28T06:34:25.012Z,1.40
2024-01-28T06:36:57.534Z,1.30
2024-01-28T06:39:29.944Z,1.30
2024-01-28T06:42:02.039Z,1.20
2024-01-28T06:47:08.056Z,1.10
2024-01-28T06:49:40.639Z,1.20
2024-01-28T06:52:12.624Z,1.20
2024-01-28T06:54:47.353Z,1.20
2024-01-28T06:57:21.115Z,1.30
2024-01-28T06:59:53.256Z,1.10
2024-01-28T07:02:26.650Z,1.10
2024-01-28T07:04:59.153Z,1.00
2024-01-28T07:07:31.312Z,1.10
2024-01-28T07:12:37.357Z,1.20
2024-01-28T07:15:11.076Z,1.30
2024-01-28T07:20:18.248Z,1.60
2024-01-28T07:22:51.013Z,-0.70
2024-01-28T07:25:23.468Z,1.50
2024-01-28T07:27:56.237Z,1.50
2024-01-28T07:30:28.592Z,1.60
2024-01-28T07:35:33.836Z,1.50
2024-01-28T07:38:07.694Z,1.50
2024-01-28T07:40:40.834Z,1.40
2024-01-28T07:45:46.863Z,1.40
2024-01-28T07:48:19.112Z,1.40
2024-01-28T07:50:51.994Z,1.50
2024-01-28T07:53:23.968Z,1.70
2024-01-28T07:55:56.814Z,1.80
2024-01-28T07:58:29.027Z,2.10
2024-01-28T08:03:35.915Z,2.10
2024-01-28T08:06:09.507Z,2.10
2024-01-28T08:08:41.949Z,2.20
2024-01-28T08:11:14.183Z,2.30
2024-01-28T08:13:47.068Z,2.30
2024-01-28T08:18:52.920Z,2.30
2024-01-28T08:21:25.023Z,2.30
2024-01-28T08:23:57.826Z,2.40
2024-01-28T08:26:30.026Z,2.40
2024-01-28T08:29:03.854Z,2.50
2024-01-28T08:31:36.549Z,2.50
2024-01-28T08:34:09.002Z,2.60
2024-01-28T08:36:41.652Z,2.70
2024-01-28T08:39:15.933Z,2.80
2024-01-28T08:41:47.884Z,3.00
2024-01-28T08:44:21.727Z,3.00
2024-01-28T08:46:54.980Z,3.10
2024-01-28T08:49:27.499Z,3.10
2024-01-28T08:54:34.294Z,3.60
2024-01-28T08:57:07.346Z,3.20
2024-01-28T08:59:39.606Z,3.30
2024-01-28T09:02:12.137Z,3.40
2024-01-28T09:04:44.732Z,4.00
2024-01-28T09:07:16.988Z,4.80
2024-01-28T09:10:11.745Z,5.40
2024-01-28T09:15:18.359Z,5.70
2024-01-28T09:20:23.839Z,5.70
2024-01-28T09:25:30.567Z,6.80
2024-01-28T09:28:02.564Z,7.60
2024-01-28T09:33:11.913Z,8.70
2024-01-28T09:40:54.135Z,10.00
2024-01-28T09:43:32.745Z,10.50
2024-01-28T09:46:06.162Z,10.70
2024-01-28T09:48:39.211Z,10.40
2024-01-28T09:51:13.876Z,10.10
2024-01-28T09:53:45.787Z,9.60
2024-01-28T09:56:19.242Z,9.50
2024-01-28T09:58:55.575Z,8.90
2024-01-28T10:01:32.498Z,8.90
2024-01-28T10:04:05.356Z,9.10
2024-01-28T10:06:37.949Z,9.50
2024-01-28T10:14:16.647Z,9.70
2024-01-28T10:16:50.419Z,9.50
2024-01-28T10:19:23.175Z,9.30
2024-01-28T10:24:30.137Z,9.30
2024-01-28T10:32:09.376Z,9.80
2024-01-28T10:37:16.447Z,11.90
2024-01-28T10:39:50.261Z,10.80
2024-01-28T10:42:27.122Z,10.20
2024-01-28T10:45:01.174Z,9.80
2024-01-28T10:47:37.154Z,9.80
2024-01-28T10:50:10.466Z,9.60
2024-01-28T10:52:46.377Z,9.50
2024-01-28T10:57:51.894Z,9.50
2024-01-28T11:00:26.078Z,9.60
2024-01-28T11:03:03.225Z,9.40
2024-01-28T11:05:39.095Z,9.40
2024-01-28T11:10:45.637Z,9.50
2024-01-28T11:15:50.189Z,9.80
2024-01-28T11:18:31.929Z,9.90
2024-01-28T11:21:20.994Z,9.80
2024-01-28T11:23:55.894Z,9.80
2024-01-28T11:26:28.957Z,9.80
2024-01-28T11:31:38.111Z,9.90
2024-01-28T11:34:24.199Z,10.20
2024-01-28T11:39:48.481Z,10.30
2024-01-28T11:42:21.190Z,10.30
2024-01-28T11:55:18.862Z,10.50
2024-01-28T11:57:50.953Z,10.60
2024-01-28T12:00:24.025Z,10.90
2024-01-28T12:02:56.087Z,11.10
2024-01-28T12:05:29.842Z,10.80
2024-01-28T12:08:06.988Z,10.90
2024-01-28T12:10:40.886Z,11.10
2024-01-28T12:13:13.977Z,11.20
2024-01-28T12:23:25.594Z,11.30
2024-01-28T12:28:31.055Z,11.20
2024-01-28T12:31:03.696Z,11.20
2024-01-28T12:36:09.370Z,11.10
2024-01-28T12:38:42.225Z,11.00
2024-01-28T12:43:53.189Z,11.20
2024-01-28T12:49:00.620Z,11.30
2024-01-28T12:51:34.055Z,11.40
2024-01-28T12:54:06.188Z,11.50
2024-01-28T12:56:39.052Z,11.70
2024-01-28T12:59:11.086Z,11.50
2024-01-28T13:04:17.056Z,11.60
2024-01-28T13:11:54.882Z,11.50
2024-01-28T13:14:27.699Z,11.60
2024-01-28T13:16:59.645Z,11.80
2024-01-28T13:24:39.131Z,11.50
2024-01-28T13:29:45.584Z,11.60
2024-01-28T13:39:58.200Z,11.70
2024-01-28T13:42:31.751Z,11.50
2024-01-28T13:45:08.084Z,11.60
2024-01-28T13:47:42.640Z,11.40
2024-01-28T13:52:48.902Z,11.40
2024-01-28T13:57:53.896Z,11.30
2024-01-28T14:00:26.774Z,11.30
2024-01-28T14:08:05.136Z,11.10
2024-01-28T14:10:37.527Z,11.10
2024-01-28T14:15:42.903Z,11.10
2024-01-28T14:20:50.997Z,11.10
2024-01-28T14:23:23.002Z,11.20
2024-01-28T14:28:28.974Z,11.10
2024-01-28T14:36:07.595Z,11.20
2024-01-28T14:59:07.764Z,11.10
2024-01-28T15:01:40.724Z,11.00
2024-01-28T15:22:05.333Z,10.80
2024-01-28T15:24:38.198Z,10.70
2024-01-28T15:27:11.177Z,10.70
2024-01-28T15:32:18.986Z,10.70
2024-01-28T16:05:41.590Z,9.70
2024-01-28T16:10:50.233Z,9.40
2024-01-28T16:13:28.609Z,9.30
2024-01-28T16:41:42.639Z,8.40
2024-01-28T16:44:15.636Z,8.30
2024-01-28T16:57:00.477Z,8.20
2024-01-28T17:02:07.301Z,7.90
2024-01-28T17:17:25.954Z,7.60
2024-01-28T17:19:58.810Z,7.50
2024-01-28T17:40:24.553Z,6.90
2024-01-28T17:45:30.075Z,6.80
2024-01-28T17:53:13.832Z,6.50
2024-01-28T17:58:19.276Z,6.50
2024-01-28T18:00:52.213Z,6.50
2024-01-28T18:05:57.703Z,6.30
2024-01-28T18:08:30.903Z,6.20
2024-01-28T18:13:39.391Z,6.10
2024-01-28T18:16:14.470Z,5.90
2024-01-28T18:26:28.987Z,5.80
2024-01-28T18:29:01.586Z,5.70
2024-01-28T18:31:35.833Z,5.60
2024-01-28T18:39:15.120Z,5.40
2024-01-28T18:41:48.367Z,5.60
2024-01-28T18:44:22.313Z,5.50
2024-01-28T18:46:55.312Z,5.40
2024-01-28T18:49:27.749Z,5.40
2024-01-28T18:54:33.492Z,5.40
2024-01-28T18:57:05.963Z,5.30
2024-01-28T18:59:38.865Z,5.20
2024-01-28T19:04:44.761Z,5.20
2024-01-28T19:09:53.592Z,5.30
2024-01-28T19:12:26.507Z,5.40
2024-01-28T19:14:59.001Z,5.50
2024-01-28T19:17:31.021Z,5.60
2024-01-28T19:20:07.849Z,5.50
2024-01-28T19:25:17.800Z,5.50
2024-01-28T19:27:49.768Z,5.40
2024-01-28T19:30:22.643Z,5.40
2024-01-28T19:32:54.693Z,5.30
2024-01-28T19:35:27.522Z,5.20
2024-01-28T19:40:32.816Z,5.10
2024-01-28T19:43:05.295Z,5.20
2024-01-28T19:53:40.065Z,5.30
2024-01-28T19:58:47.879Z,5.30
2024-01-28T20:09:10.538Z,4.90
2024-01-28T20:16:48.961Z,5.10
2024-01-28T20:19:23.026Z,5.00
2024-01-28T20:29:37.794Z,4.90
2024-01-28T20:34:44.319Z,4.90
2024-01-28T20:44:56.041Z,5.20
2024-01-28T20:55:08.124Z,5.00
2024-01-28T21:00:13.500Z,5.20
2024-01-28T21:07:51.971Z,5.10
2024-01-28T21:18:03.170Z,4.80
2024-01-28T21:20:36.114Z,4.80
2024-01-28T21:30:48.478Z,5.00
2024-01-28T21:35:53.546Z,5.00
2024-01-28T21:38:25.902Z,4.90
2024-01-28T21:40:57.892Z,4.80
2024-01-28T21:43:30.538Z,4.80
2024-01-28T21:46:02.962Z,4.90
2024-01-28T21:48:35.930Z,5.00
2024-01-28T21:56:15.017Z,4.60
2024-01-28T22:01:20.909Z,4.60
2024-01-28T22:03:53.682Z,4.50
2024-01-28T22:11:32.109Z,4.00
2024-01-28T22:14:04.117Z,3.90
2024-01-28T22:31:55.047Z,3.90
2024-01-28T22:37:00.423Z,3.90
2024-01-28T22:42:06.149Z,3.70
2024-01-28T22:49:45.329Z,3.60
2024-01-28T22:52:17.306Z,3.60
2024-01-28T22:54:51.085Z,3.60
2024-01-28T22:57:23.112Z,3.80
2024-01-28T22:59:55.844Z,4.10
2024-01-28T23:02:29.641Z,4.30
2024-01-28T23:05:02.899Z,4.50
2024-01-28T23:07:35.471Z,4.80
2024-01-28T23:10:09.750Z,5.10
2024-01-28T23:12:42.538Z,5.20
2024-01-28T23:15:18.331Z,5.30
2024-01-28T23:17:55.032Z,5.20
2024-01-28T23:20:27.012Z,4.90
2024-01-28T23:30:39.291Z,4.50
2024-01-28T23:33:12.191Z,4.50
2024-01-28T23:35:44.260Z,4.40
2024-01-28T23:38:17.161Z,4.40
2024-01-28T23:40:49.075Z,4.20
2024-01-28T23:45:54.184Z,4.30
2024-01-28T23:48:27.740Z,4.30
2024-01-28T23:53:32.849Z,4.30
2024-01-28T23:56:05.632Z,4.60
2024-01-28T23:58:38.047Z,4.80
